Impacts TAF Board
For situational awareness. Not to be used for flight planning purposes.
IDs:

KTUL - Tulsa Intl Arpt, OK, US

Issued at 1937 UTC 06 Dec 2019
Updated at 2125 UTC 06 Dec 2019
Potential Impact None Slight Moderate High
Time2053Z 06/22Z 06/23Z 07/00Z 07/01Z 07/02Z 07/03Z 07/04Z 07/05Z 07/06Z 07/07Z 07/08Z 07/09Z 07/10Z>>
Type OBS PRVL PRVL PRVL PRVL PRVL PRVL PRVL PRVL PRVL PRVL PRVL PRVL PRVL
  [TEMP]  
VIS 10 >6 >6 >6 >6 >6 >6 >6 >6 >6 >6 >6 >6 >6
  [3]  
CIG -- -- -- -- -- -- -- -- -- -- -- -- -- --
  [--]  
Cover SCT SCT SCT SCT SKC SKC SKC SKC SKC SKC SKC SKC SKC SKC
  [SKC]  
FltCat VFR VFR VFR VFR VFR VFR VFR VFR VFR VFR VFR VFR VFR VFR
  [MVFR]  
WX -- -- -- -- -- -- -- -- -- -- -- -- -- --
  [BR]  
WDir 340 360 360 360 10 10 10 10 10 10 10 10 10 10
[10]
WSpd 9 11 11 11 3 3 3 3 3 3 3 3 3 3
  [3]  
WGst -- -- -- -- -- -- -- -- -- -- -- -- -- --
  [--]  
Raw TAF
KTUL 061937Z 0620/0718 36011KT P6SM SCT250
  FM070100 01003KT P6SM SKC
  TEMPO 0710/0714 3SM BR
  FM071500 17005KT P6SM SKC


Raw METAR
KTUL 062053Z 34009KT 10SM SCT250 11/01 A3030 RMK AO2 SLP259 T01110006 55009
KTUL 061953Z 36009G18KT 10SM SCT250 10/01 A3030 RMK AO2 SLP259 T01000006
KTUL 061853Z 35012KT 10SM SCT250 10/01 A3030 RMK AO2 SLP260 T01000011

METAR Board
Radar Display
Forecast Discussion
For situational awareness. Not to be used for flight planning purposes.